createdAt,value
2023-05-21T00:00:37.863Z,22.92
2023-05-21T00:01:38.178Z,22.94
2023-05-21T00:02:38.623Z,22.94
2023-05-21T00:03:38.920Z,22.92
2023-05-21T00:04:39.023Z,22.92
2023-05-21T00:05:39.430Z,22.94
2023-05-21T00:06:39.653Z,22.94
2023-05-21T00:07:39.969Z,22.92
2023-05-21T00:08:40.274Z,22.92
2023-05-21T00:09:40.564Z,22.92
2023-05-21T00:10:41.094Z,22.92
2023-05-21T00:11:41.220Z,22.92
2023-05-21T00:12:41.655Z,22.92
2023-05-21T00:13:41.786Z,22.92
2023-05-21T00:14:42.102Z,22.92
2023-05-21T00:15:42.411Z,22.92
2023-05-21T00:16:42.810Z,22.92
2023-05-21T00:17:42.960Z,22.92
2023-05-21T00:18:43.322Z,22.91
2023-05-21T00:19:43.478Z,22.90
2023-05-21T00:20:43.803Z,22.92
2023-05-21T00:21:44.095Z,22.91
2023-05-21T00:22:44.408Z,22.91
2023-05-21T00:23:44.690Z,22.90
2023-05-21T00:24:44.994Z,22.91
2023-05-21T00:25:45.297Z,22.91
2023-05-21T00:26:45.603Z,22.91
2023-05-21T00:27:45.930Z,22.91
2023-05-21T00:28:46.230Z,22.91
2023-05-21T00:29:46.529Z,22.91
2023-05-21T00:30:46.834Z,22.91
2023-05-21T00:31:47.149Z,22.91
2023-05-21T00:32:47.536Z,22.91
2023-05-21T00:33:47.750Z,22.91
2023-05-21T00:34:48.056Z,22.90
2023-05-21T00:35:48.388Z,22.91
2023-05-21T00:36:48.635Z,22.90
2023-05-21T00:37:48.923Z,22.90
2023-05-21T00:38:49.207Z,22.88
2023-05-21T00:39:49.479Z,22.88
2023-05-21T00:40:49.781Z,22.90
2023-05-21T00:41:50.089Z,22.90
2023-05-21T00:42:50.388Z,22.91
2023-05-21T00:43:50.689Z,22.91
2023-05-21T00:44:50.983Z,22.88
2023-05-21T00:45:51.318Z,22.90
2023-05-21T00:46:51.577Z,22.90
2023-05-21T00:47:51.933Z,22.90
2023-05-21T00:48:52.213Z,22.90
2023-05-21T00:49:52.536Z,22.88
2023-05-21T00:50:52.795Z,22.88
2023-05-21T00:51:53.133Z,22.90
2023-05-21T00:52:53.440Z,22.88
2023-05-21T00:53:53.712Z,22.90
2023-05-21T00:54:54.000Z,22.88
2023-05-21T00:55:54.319Z,22.90
2023-05-21T00:56:54.617Z,22.88
2023-05-21T00:57:54.956Z,22.88
2023-05-21T00:58:55.239Z,22.88
2023-05-21T00:59:55.558Z,22.88
2023-05-21T01:00:55.906Z,22.88
2023-05-21T01:01:56.426Z,22.88
2023-05-21T01:02:56.578Z,22.86
2023-05-21T01:03:56.808Z,22.86
2023-05-21T01:04:57.155Z,22.86
2023-05-21T01:05:57.486Z,22.88
2023-05-21T01:06:57.786Z,22.86
2023-05-21T01:07:58.082Z,22.88
2023-05-21T01:08:58.321Z,22.86
2023-05-21T01:09:58.622Z,22.86
2023-05-21T01:10:58.913Z,22.88
2023-05-21T01:11:59.212Z,22.85
2023-05-21T01:12:59.500Z,22.86
2023-05-21T01:13:59.855Z,22.88
2023-05-21T01:15:00.130Z,22.86
2023-05-21T01:16:00.425Z,22.86
2023-05-21T01:17:00.760Z,22.86
2023-05-21T01:18:01.060Z,22.86
2023-05-21T01:19:01.430Z,22.85
2023-05-21T01:20:01.771Z,22.86
2023-05-21T01:21:02.042Z,22.86
2023-05-21T01:22:02.363Z,22.85
2023-05-21T01:23:02.653Z,22.86
2023-05-21T01:24:02.984Z,22.85
2023-05-21T01:25:03.263Z,22.86
2023-05-21T01:26:03.574Z,22.85
2023-05-21T01:27:03.866Z,22.86
2023-05-21T01:28:04.172Z,22.86
2023-05-21T01:29:04.484Z,22.86
2023-05-21T01:30:04.776Z,22.85
2023-05-21T01:31:05.077Z,22.85
2023-05-21T01:32:05.391Z,22.86
2023-05-21T01:33:05.836Z,22.85
2023-05-21T01:34:06.046Z,22.86
2023-05-21T01:35:06.314Z,22.85
2023-05-21T01:36:06.645Z,22.86
2023-05-21T01:37:06.944Z,22.85
2023-05-21T01:38:07.248Z,22.85
2023-05-21T01:39:07.511Z,22.85
2023-05-21T01:40:07.867Z,22.85
2023-05-21T01:41:08.040Z,22.85
2023-05-21T01:42:08.351Z,22.85
2023-05-21T01:43:08.636Z,22.85
2023-05-21T01:44:08.975Z,22.85
2023-05-21T01:45:09.248Z,22.85
2023-05-21T01:46:09.622Z,22.85
2023-05-21T01:47:09.798Z,22.85
2023-05-21T01:48:10.112Z,22.85
2023-05-21T01:49:10.398Z,22.85
2023-05-21T01:50:10.718Z,22.85
2023-05-21T01:51:11.037Z,22.85
2023-05-21T01:52:11.348Z,22.85
2023-05-21T01:53:11.657Z,22.85
2023-05-21T01:54:11.979Z,22.83
2023-05-21T01:55:12.279Z,22.83
2023-05-21T01:56:12.562Z,22.83
2023-05-21T01:57:12.866Z,22.85
2023-05-21T01:58:13.180Z,22.83
2023-05-21T01:59:13.479Z,22.83
2023-05-21T02:00:13.788Z,22.83
2023-05-21T02:01:14.114Z,22.83
2023-05-21T02:02:14.434Z,22.85
2023-05-21T02:03:14.775Z,22.83
2023-05-21T02:04:15.084Z,22.83
2023-05-21T02:05:15.365Z,22.83
2023-05-21T02:06:15.691Z,22.82
2023-05-21T02:07:15.968Z,22.83
2023-05-21T02:08:16.299Z,22.82
2023-05-21T02:09:16.582Z,22.82
2023-05-21T02:10:16.901Z,22.83
2023-05-21T02:11:17.212Z,22.83
2023-05-21T02:12:17.534Z,22.83
2023-05-21T02:13:17.849Z,22.82
2023-05-21T02:14:18.164Z,22.83
2023-05-21T02:15:18.476Z,22.83
2023-05-21T02:16:18.842Z,22.82
2023-05-21T02:17:19.098Z,22.83
2023-05-21T02:18:19.378Z,22.83
2023-05-21T02:19:19.702Z,22.82
2023-05-21T02:20:20.001Z,22.82
2023-05-21T02:21:20.303Z,22.82
2023-05-21T02:22:20.608Z,22.82
2023-05-21T02:23:20.922Z,22.82
2023-05-21T02:24:21.242Z,22.82
2023-05-21T02:25:21.548Z,22.82
2023-05-21T02:26:21.875Z,22.82
2023-05-21T02:27:22.171Z,22.80
2023-05-21T02:28:22.440Z,22.82
2023-05-21T02:29:22.754Z,22.82
2023-05-21T02:30:23.083Z,22.80
2023-05-21T02:31:23.384Z,22.80
2023-05-21T02:32:23.763Z,22.80
2023-05-21T02:33:24.034Z,22.80
2023-05-21T02:34:24.416Z,22.82
2023-05-21T02:35:24.598Z,22.80
2023-05-21T02:36:24.917Z,22.80
2023-05-21T02:37:25.212Z,22.82
2023-05-21T02:38:25.535Z,22.82
2023-05-21T02:39:25.849Z,22.80
2023-05-21T02:40:26.165Z,22.80
2023-05-21T02:41:26.498Z,22.80
2023-05-21T02:42:26.820Z,22.80
2023-05-21T02:43:27.129Z,22.80
2023-05-21T02:44:27.405Z,22.80
2023-05-21T02:45:27.721Z,22.82
2023-05-21T02:46:28.097Z,22.80
2023-05-21T02:47:28.422Z,22.80
2023-05-21T02:48:28.730Z,22.80
2023-05-21T02:49:29.033Z,22.80
2023-05-21T02:50:29.339Z,22.80
2023-05-21T02:51:29.739Z,22.79
2023-05-21T02:52:30.061Z,22.79
2023-05-21T02:53:30.345Z,22.79
2023-05-21T02:54:30.660Z,22.80
2023-05-21T02:55:30.921Z,22.79
2023-05-21T02:56:31.238Z,22.80
2023-05-21T02:57:31.558Z,22.79
2023-05-21T02:58:31.873Z,22.79
2023-05-21T02:59:32.174Z,22.79
2023-05-21T03:00:32.488Z,22.80
2023-05-21T03:01:32.859Z,22.77
2023-05-21T03:02:33.274Z,22.79
2023-05-21T03:03:33.520Z,22.79
2023-05-21T03:04:33.712Z,22.79
2023-05-21T03:05:34.166Z,22.77
2023-05-21T03:06:34.308Z,22.77
2023-05-21T03:07:34.641Z,22.79
2023-05-21T03:08:34.939Z,22.79
2023-05-21T03:09:35.216Z,22.77
2023-05-21T03:10:35.537Z,22.79
2023-05-21T03:11:35.832Z,22.79
2023-05-21T03:12:36.149Z,22.79
2023-05-21T03:13:36.484Z,22.79
2023-05-21T03:14:36.750Z,22.77
2023-05-21T03:15:37.243Z,22.79
2023-05-21T03:16:37.492Z,22.79
2023-05-21T03:17:37.828Z,22.79
2023-05-21T03:18:38.117Z,22.79
2023-05-21T03:19:38.413Z,22.79
2023-05-21T03:20:38.728Z,22.77
2023-05-21T03:21:39.020Z,22.77
2023-05-21T03:22:39.304Z,22.77
2023-05-21T03:23:39.616Z,22.77
2023-05-21T03:24:39.996Z,22.77
2023-05-21T03:25:40.234Z,22.79
2023-05-21T03:26:40.562Z,22.77
2023-05-21T03:27:40.864Z,22.77
2023-05-21T03:28:41.177Z,22.77
2023-05-21T03:29:41.482Z,22.77
2023-05-21T03:30:41.805Z,22.77
2023-05-21T03:31:42.152Z,22.76
2023-05-21T03:32:42.475Z,22.77
2023-05-21T03:33:42.803Z,22.77
2023-05-21T03:34:43.115Z,22.76
2023-05-21T03:35:43.408Z,22.76
2023-05-21T03:36:43.722Z,22.77
2023-05-21T03:37:44.059Z,22.77
2023-05-21T03:38:44.355Z,22.77
2023-05-21T03:39:44.684Z,22.77
2023-05-21T03:40:45.006Z,22.77
2023-05-21T03:41:45.327Z,22.76
2023-05-21T03:42:45.667Z,22.77
2023-05-21T03:43:45.995Z,22.76
2023-05-21T03:44:46.320Z,22.75
2023-05-21T03:45:46.710Z,22.76
2023-05-21T03:46:46.926Z,22.76
2023-05-21T03:47:47.251Z,22.76
2023-05-21T03:48:47.601Z,22.76
2023-05-21T03:49:47.956Z,22.76
2023-05-21T03:50:48.257Z,22.75
2023-05-21T03:51:48.568Z,22.75
2023-05-21T03:52:48.898Z,22.76
2023-05-21T03:53:49.222Z,22.76
2023-05-21T03:54:49.513Z,22.76
2023-05-21T03:55:49.827Z,22.75
2023-05-21T03:56:50.429Z,22.76
2023-05-21T03:57:50.500Z,22.76
2023-05-21T03:58:50.830Z,22.75
2023-05-21T03:59:51.110Z,22.75
2023-05-21T04:00:51.450Z,22.76
2023-05-21T04:01:51.758Z,22.76
2023-05-21T04:02:52.217Z,22.75
2023-05-21T04:03:52.720Z,22.76
2023-05-21T04:04:52.778Z,22.75
2023-05-21T04:05:52.934Z,22.75
2023-05-21T04:06:53.262Z,22.75
2023-05-21T04:07:53.592Z,22.75
2023-05-21T04:08:53.946Z,22.73
2023-05-21T04:09:54.237Z,22.75
2023-05-21T04:10:54.559Z,22.75
2023-05-21T04:11:54.873Z,22.75
2023-05-21T04:12:55.198Z,22.75
2023-05-21T04:13:55.461Z,22.75
2023-05-21T04:14:55.773Z,22.75
2023-05-21T04:15:56.120Z,22.73
2023-05-21T04:16:56.426Z,22.75
2023-05-21T04:17:56.754Z,22.75
2023-05-21T04:18:57.094Z,22.75
2023-05-21T04:19:57.374Z,22.75
2023-05-21T04:20:57.713Z,22.75
2023-05-21T04:21:58.042Z,22.75
2023-05-21T04:22:58.370Z,22.73
2023-05-21T04:23:58.682Z,22.76
2023-05-21T04:24:59.015Z,22.73
2023-05-21T04:25:59.351Z,22.75
2023-05-21T04:26:59.666Z,22.73
2023-05-21T04:28:00.016Z,22.75
2023-05-21T04:29:00.310Z,22.75
2023-05-21T04:30:00.649Z,22.72
2023-05-21T04:31:00.973Z,22.75
2023-05-21T04:32:01.289Z,22.75
2023-05-21T04:33:01.623Z,22.75
2023-05-21T04:34:01.946Z,22.73
2023-05-21T04:35:02.256Z,22.73
2023-05-21T04:36:02.592Z,22.73
2023-05-21T04:37:02.927Z,22.75
2023-05-21T04:38:04.301Z,22.75
2023-05-21T04:39:03.528Z,22.75
2023-05-21T04:40:03.875Z,22.76
2023-05-21T04:41:04.190Z,22.73
2023-05-21T04:42:04.529Z,22.76
2023-05-21T04:43:04.839Z,22.75
2023-05-21T04:44:05.184Z,22.76
2023-05-21T04:45:05.485Z,22.76
2023-05-21T04:46:05.834Z,22.75
2023-05-21T04:47:06.255Z,22.76
2023-05-21T04:48:06.521Z,22.76
2023-05-21T04:49:06.781Z,22.76
2023-05-21T04:50:07.168Z,22.76
2023-05-21T04:51:07.358Z,22.77
2023-05-21T04:52:07.714Z,22.76
2023-05-21T04:53:08.028Z,22.77
2023-05-21T04:54:08.381Z,22.77
2023-05-21T04:55:08.685Z,22.77
2023-05-21T04:56:08.975Z,22.76
2023-05-21T04:57:09.306Z,22.77
2023-05-21T04:58:09.596Z,22.76
2023-05-21T04:59:09.919Z,22.77
2023-05-21T05:00:10.282Z,22.79
2023-05-21T05:01:10.692Z,22.77
2023-05-21T05:02:10.923Z,22.79
2023-05-21T05:03:11.319Z,22.79
2023-05-21T05:04:11.536Z,22.79
2023-05-21T05:05:11.881Z,22.79
2023-05-21T05:06:12.208Z,22.79
2023-05-21T05:07:12.533Z,22.80
2023-05-21T05:08:14.729Z,22.80
2023-05-21T05:09:13.114Z,22.80
2023-05-21T05:10:13.463Z,22.80
2023-05-21T05:11:13.779Z,22.82
2023-05-21T05:12:14.119Z,22.80
2023-05-21T05:13:14.398Z,22.82
2023-05-21T05:14:14.740Z,22.82
2023-05-21T05:15:15.067Z,22.82
2023-05-21T05:16:15.440Z,22.83
2023-05-21T05:17:15.685Z,22.83
2023-05-21T05:18:16.030Z,22.83
2023-05-21T05:19:16.415Z,22.85
2023-05-21T05:20:16.620Z,22.85
2023-05-21T05:21:16.937Z,22.85
2023-05-21T05:22:17.264Z,22.85
2023-05-21T05:23:17.593Z,22.86
2023-05-21T05:24:17.930Z,22.86
2023-05-21T05:25:18.244Z,22.85
2023-05-21T05:26:18.570Z,22.88
2023-05-21T05:27:18.897Z,22.88
2023-05-21T05:28:19.218Z,22.88
2023-05-21T05:29:19.534Z,22.88
2023-05-21T05:30:19.876Z,22.90
2023-05-21T05:31:20.269Z,22.90
2023-05-21T05:32:20.607Z,22.90
2023-05-21T05:33:20.904Z,22.90
2023-05-21T05:34:21.235Z,22.90
2023-05-21T05:35:21.554Z,22.91
2023-05-21T05:36:21.878Z,22.92
2023-05-21T05:37:22.207Z,22.91
2023-05-21T05:38:22.531Z,22.91
2023-05-21T05:39:22.818Z,22.92
2023-05-21T05:40:23.133Z,22.91
2023-05-21T05:41:23.478Z,22.94
2023-05-21T05:42:23.813Z,22.92
2023-05-21T05:43:24.132Z,22.94
2023-05-21T05:44:24.468Z,22.94
2023-05-21T05:45:24.747Z,22.94
2023-05-21T05:46:25.086Z,22.95
2023-05-21T05:47:25.441Z,22.97
2023-05-21T05:48:25.741Z,22.95
2023-05-21T05:49:26.048Z,22.97
2023-05-21T05:50:26.383Z,22.97
2023-05-21T05:51:26.699Z,22.97
2023-05-21T05:52:27.031Z,22.98
2023-05-21T05:53:27.341Z,22.98
2023-05-21T05:54:27.676Z,22.98
2023-05-21T05:55:27.983Z,22.98
2023-05-21T05:56:28.335Z,22.98
2023-05-21T05:57:28.649Z,23.00
2023-05-21T05:58:28.994Z,23.00
2023-05-21T05:59:29.280Z,23.00
2023-05-21T06:00:29.657Z,23.00
2023-05-21T06:01:29.957Z,23.01
2023-05-21T06:02:30.374Z,23.01
2023-05-21T06:03:30.691Z,23.01
2023-05-21T06:04:30.822Z,23.01
2023-05-21T06:05:31.138Z,23.01
2023-05-21T06:06:31.464Z,23.02
2023-05-21T06:07:31.786Z,23.02
2023-05-21T06:08:32.147Z,23.02
2023-05-21T06:09:32.453Z,23.02
2023-05-21T06:10:32.800Z,23.02
2023-05-21T06:11:33.102Z,23.02
2023-05-21T06:12:33.443Z,23.04
2023-05-21T06:13:33.770Z,23.05
2023-05-21T06:14:34.061Z,23.04
2023-05-21T06:15:34.453Z,23.05
2023-05-21T06:16:34.677Z,23.05
2023-05-21T06:17:35.020Z,23.05
2023-05-21T06:18:35.231Z,23.07
2023-05-21T06:19:35.580Z,23.07
2023-05-21T06:20:35.875Z,23.09
2023-05-21T06:21:36.137Z,23.07
2023-05-21T06:22:36.469Z,23.07
2023-05-21T06:23:36.781Z,23.09
2023-05-21T06:24:37.100Z,23.07
2023-05-21T06:25:37.741Z,23.09
2023-05-21T06:26:37.701Z,23.09
2023-05-21T06:27:38.023Z,23.12
2023-05-21T06:28:38.326Z,23.12
2023-05-21T06:29:38.649Z,23.10
2023-05-21T06:30:38.985Z,23.12
2023-05-21T06:31:39.306Z,23.12
2023-05-21T06:32:39.688Z,23.12
2023-05-21T06:33:40.082Z,23.12
2023-05-21T06:34:40.269Z,23.13
2023-05-21T06:35:40.596Z,23.13
2023-05-21T06:36:40.925Z,23.15
2023-05-21T06:37:41.244Z,23.15
2023-05-21T06:38:41.573Z,23.15
2023-05-21T06:39:41.885Z,23.15
2023-05-21T06:40:42.184Z,23.15
2023-05-21T06:41:42.507Z,23.16
2023-05-21T06:42:42.846Z,23.16
2023-05-21T06:43:43.159Z,23.17
2023-05-21T06:44:43.462Z,23.16
2023-05-21T06:45:43.801Z,23.16
2023-05-21T06:46:44.117Z,23.16
2023-05-21T06:47:44.462Z,23.17
2023-05-21T06:48:44.778Z,23.19
2023-05-21T06:49:45.059Z,23.20
2023-05-21T06:50:45.328Z,23.22
2023-05-21T06:51:45.679Z,23.20
2023-05-21T06:52:46.015Z,23.22
2023-05-21T06:53:46.321Z,23.22
2023-05-21T06:54:46.626Z,23.22
2023-05-21T06:55:46.908Z,23.25
2023-05-21T06:56:47.240Z,23.27
2023-05-21T06:57:47.543Z,23.27
2023-05-21T06:58:47.859Z,23.27
2023-05-21T06:59:48.182Z,23.28
2023-05-21T07:00:48.573Z,23.31
2023-05-21T07:01:48.752Z,23.32
2023-05-21T07:02:49.182Z,23.32
2023-05-21T07:03:49.395Z,23.32
2023-05-21T07:04:49.709Z,23.33
2023-05-21T07:05:50.029Z,23.35
2023-05-21T07:06:50.372Z,23.36
2023-05-21T07:07:50.672Z,23.38
2023-05-21T07:08:50.990Z,23.39
2023-05-21T07:09:51.266Z,23.42
2023-05-21T07:10:51.565Z,23.42
2023-05-21T07:11:51.892Z,23.46
2023-05-21T07:12:52.226Z,23.47
2023-05-21T07:13:52.429Z,23.48
2023-05-21T07:14:52.766Z,23.51
2023-05-21T07:15:53.096Z,23.54
2023-05-21T07:16:53.441Z,23.54
2023-05-21T07:17:53.869Z,23.58
2023-05-21T07:18:54.134Z,23.61
2023-05-21T07:19:54.271Z,23.61
2023-05-21T07:20:54.588Z,23.63
2023-05-21T07:21:54.914Z,23.65
2023-05-21T07:22:55.259Z,23.66
2023-05-21T07:23:55.465Z,23.69
2023-05-21T07:24:55.789Z,23.70
2023-05-21T07:25:56.106Z,23.72
2023-05-21T07:26:56.429Z,23.72
2023-05-21T07:27:56.750Z,23.73
2023-05-21T07:29:04.123Z,23.76
2023-05-21T07:29:57.385Z,23.78
2023-05-21T07:30:57.686Z,23.79
2023-05-21T07:31:57.973Z,23.83
2023-05-21T07:32:58.346Z,23.84
2023-05-21T07:33:58.511Z,23.87
2023-05-21T07:34:58.843Z,23.90
2023-05-21T07:35:59.145Z,23.91
2023-05-21T07:36:59.463Z,23.95
2023-05-21T07:37:59.818Z,23.98
2023-05-21T07:39:00.138Z,23.98
2023-05-21T07:40:00.462Z,24.02
2023-05-21T07:41:00.751Z,24.03
2023-05-21T07:42:01.075Z,24.06
2023-05-21T07:43:01.450Z,24.08
2023-05-21T07:44:01.634Z,24.09
2023-05-21T07:45:01.951Z,24.10
2023-05-21T07:46:02.271Z,24.10
2023-05-21T07:47:02.572Z,24.10
2023-05-21T07:48:02.996Z,24.13
2023-05-21T07:49:03.155Z,24.13
2023-05-21T07:50:03.470Z,24.15
2023-05-21T07:51:03.806Z,24.18
2023-05-21T07:52:04.104Z,24.20
2023-05-21T07:53:04.469Z,24.22
2023-05-21T07:54:04.622Z,24.22
2023-05-21T07:55:04.957Z,24.25
2023-05-21T07:56:05.246Z,24.27
2023-05-21T07:57:05.576Z,24.28
2023-05-21T07:58:05.893Z,24.30
2023-05-21T07:59:06.228Z,24.31
2023-05-21T08:00:06.554Z,24.34
2023-05-21T08:01:06.862Z,24.34
2023-05-21T08:02:07.154Z,24.37
2023-05-21T08:03:07.684Z,24.39
2023-05-21T08:04:07.889Z,24.42
2023-05-21T08:05:08.095Z,24.42
2023-05-21T08:06:08.224Z,24.43
2023-05-21T08:07:08.559Z,24.45
2023-05-21T08:08:08.748Z,24.46
2023-05-21T08:09:09.089Z,24.46
2023-05-21T08:10:09.400Z,24.47
2023-05-21T08:11:09.688Z,24.49
2023-05-21T08:12:09.992Z,24.50
2023-05-21T08:13:10.310Z,24.52
2023-05-21T08:14:10.596Z,24.53
2023-05-21T08:15:10.923Z,24.57
2023-05-21T08:16:11.260Z,24.57
2023-05-21T08:17:11.596Z,24.58
2023-05-21T08:18:12.070Z,24.60
2023-05-21T08:19:12.292Z,24.61
2023-05-21T08:20:12.461Z,24.61
2023-05-21T08:21:12.796Z,24.62
2023-05-21T08:22:13.104Z,24.64
2023-05-21T08:23:13.424Z,24.64
2023-05-21T08:24:13.744Z,24.67
2023-05-21T08:25:14.058Z,24.68
2023-05-21T08:26:14.357Z,24.69
2023-05-21T08:27:14.680Z,24.68
2023-05-21T08:28:15.002Z,24.73
2023-05-21T08:29:15.332Z,24.73
2023-05-21T08:30:15.518Z,24.73
2023-05-21T08:31:15.886Z,24.77
2023-05-21T08:32:16.240Z,24.78
2023-05-21T08:33:17.134Z,24.80
2023-05-21T08:34:16.560Z,24.81
2023-05-21T08:35:16.886Z,24.83
2023-05-21T08:36:17.184Z,24.84
2023-05-21T08:37:17.610Z,24.85
2023-05-21T08:38:17.868Z,24.85
2023-05-21T08:39:18.047Z,24.85
2023-05-21T08:40:18.220Z,24.87
2023-05-21T08:41:18.497Z,24.88
2023-05-21T08:42:32.940Z,24.88
2023-05-21T08:43:20.093Z,24.88
2023-05-21T08:44:19.356Z,24.91
2023-05-21T08:45:19.635Z,24.90
2023-05-21T08:46:20.024Z,24.90
2023-05-21T08:47:20.181Z,24.93
2023-05-21T08:48:20.487Z,24.91
2023-05-21T08:49:20.680Z,24.93
2023-05-21T08:50:21.075Z,24.95
2023-05-21T08:51:21.206Z,24.96
2023-05-21T08:52:21.507Z,24.96
2023-05-21T08:53:28.144Z,24.98
2023-05-21T08:54:23.123Z,24.98
2023-05-21T08:55:22.354Z,24.99
2023-05-21T08:56:22.671Z,24.99
2023-05-21T08:57:22.972Z,24.98
2023-05-21T08:58:23.277Z,24.96
2023-05-21T08:59:23.562Z,24.98
2023-05-21T09:00:23.870Z,24.96
2023-05-21T09:01:26.446Z,24.96
2023-05-21T09:02:24.539Z,24.96
2023-05-21T09:03:24.928Z,24.96
2023-05-21T09:04:25.161Z,24.96
2023-05-21T09:05:25.285Z,24.98
2023-05-21T09:06:25.643Z,24.98
2023-05-21T09:07:25.901Z,24.98
2023-05-21T09:08:26.227Z,24.99
2023-05-21T09:09:26.523Z,24.98
2023-05-21T09:10:26.848Z,24.99
2023-05-21T09:11:27.143Z,24.99
2023-05-21T09:12:27.452Z,24.99
2023-05-21T09:13:27.755Z,25.00
2023-05-21T09:14:28.068Z,25.00
2023-05-21T09:15:28.377Z,25.02
2023-05-21T09:16:28.708Z,25.02
2023-05-21T09:17:29.029Z,25.03
2023-05-21T09:18:29.331Z,25.03
2023-05-21T09:19:29.715Z,25.05
2023-05-21T09:20:29.863Z,25.05
2023-05-21T09:21:30.148Z,25.06
2023-05-21T09:22:30.459Z,25.06
2023-05-21T09:23:30.813Z,25.08
2023-05-21T09:24:31.732Z,25.09
2023-05-21T09:25:31.315Z,25.10
2023-05-21T09:26:31.609Z,25.10
2023-05-21T09:27:31.789Z,25.10
2023-05-21T09:28:32.114Z,25.13
2023-05-21T09:29:39.417Z,25.13
2023-05-21T09:30:35.630Z,25.14
2023-05-21T09:31:33.253Z,25.15
2023-05-21T09:32:33.265Z,25.17
2023-05-21T09:33:33.547Z,25.17
2023-05-21T09:34:33.848Z,25.17
2023-05-21T09:35:36.058Z,25.17
2023-05-21T09:36:34.481Z,25.18
2023-05-21T09:37:34.631Z,25.18
2023-05-21T09:38:34.954Z,25.20
2023-05-21T09:39:35.311Z,25.20
2023-05-21T09:40:35.936Z,25.21
2023-05-21T09:41:35.894Z,25.20
2023-05-21T09:42:36.012Z,25.21
2023-05-21T09:43:36.353Z,25.21
2023-05-21T09:44:36.612Z,25.23
2023-05-21T09:45:37.105Z,25.24
2023-05-21T09:46:37.187Z,25.24
2023-05-21T09:47:37.535Z,25.24
2023-05-21T09:48:37.829Z,25.24
2023-05-21T09:49:38.026Z,25.24
2023-05-21T09:50:38.515Z,25.25
2023-05-21T09:51:38.550Z,25.25
2023-05-21T09:52:41.357Z,25.25
2023-05-21T09:53:39.012Z,25.25
2023-05-21T09:54:39.333Z,25.27
2023-05-21T09:55:39.523Z,25.27
2023-05-21T09:56:39.824Z,25.27
2023-05-21T09:57:40.102Z,25.27
2023-05-21T09:58:40.412Z,25.27
2023-05-21T09:59:40.712Z,25.25
2023-05-21T10:00:40.995Z,25.27
2023-05-21T10:01:41.326Z,25.28
2023-05-21T10:02:41.611Z,25.27
2023-05-21T10:03:41.882Z,25.27
2023-05-21T10:04:42.309Z,25.27
2023-05-21T10:05:42.431Z,25.25
2023-05-21T10:06:42.706Z,25.27
2023-05-21T10:07:42.996Z,25.25
2023-05-21T10:08:43.290Z,25.25
2023-05-21T10:09:43.549Z,25.25
2023-05-21T10:10:43.841Z,25.25
2023-05-21T10:11:44.081Z,25.27
2023-05-21T10:12:44.358Z,25.27
2023-05-21T10:13:44.654Z,25.25
2023-05-21T10:14:44.947Z,25.27
2023-05-21T10:15:45.282Z,25.25
2023-05-21T10:16:45.594Z,25.24
2023-05-21T10:17:45.889Z,25.24
2023-05-21T10:18:46.192Z,25.25
2023-05-21T10:19:46.446Z,25.24
2023-05-21T10:20:46.748Z,25.24
2023-05-21T10:21:47.008Z,25.23
2023-05-21T10:22:47.295Z,25.23
2023-05-21T10:23:47.576Z,25.23
2023-05-21T10:24:47.834Z,25.23
2023-05-21T10:25:48.121Z,25.21
2023-05-21T10:26:48.432Z,25.23
2023-05-21T10:27:48.696Z,25.21
2023-05-21T10:28:49.002Z,25.21
2023-05-21T10:29:49.302Z,25.20
2023-05-21T10:30:49.607Z,25.21
2023-05-21T10:31:50.192Z,25.21
2023-05-21T10:32:50.381Z,25.20
2023-05-21T10:33:50.429Z,25.20
2023-05-21T10:34:50.743Z,25.18
2023-05-21T10:35:53.070Z,25.18
2023-05-21T10:36:51.356Z,25.17
2023-05-21T10:37:51.639Z,25.17
2023-05-21T10:38:51.953Z,25.15
2023-05-21T10:39:52.243Z,25.17
2023-05-21T10:40:52.542Z,25.15
2023-05-21T10:41:54.443Z,25.15
2023-05-21T10:42:53.157Z,25.13
2023-05-21T10:43:53.469Z,25.13
2023-05-21T10:44:53.773Z,25.14
2023-05-21T10:45:54.084Z,25.14
2023-05-21T10:46:54.363Z,25.10
2023-05-21T10:47:54.724Z,25.10
2023-05-21T10:48:54.991Z,25.13
2023-05-21T10:49:55.284Z,25.10
2023-05-21T10:50:55.595Z,25.09
2023-05-21T10:51:55.933Z,25.09
2023-05-21T10:52:56.200Z,25.09
2023-05-21T10:53:56.497Z,25.09
2023-05-21T10:54:56.801Z,25.08
2023-05-21T10:55:57.110Z,25.06
2023-05-21T10:56:57.407Z,25.06
2023-05-21T10:57:57.694Z,25.08
2023-05-21T10:58:58.003Z,25.05
2023-05-21T10:59:58.303Z,25.05
2023-05-21T11:00:58.624Z,25.03
2023-05-21T11:01:58.893Z,25.02
2023-05-21T11:02:59.322Z,25.03
2023-05-21T11:03:59.593Z,25.03
2023-05-21T11:04:59.703Z,25.02
2023-05-21T11:05:59.991Z,25.02
2023-05-21T11:07:00.340Z,25.00
2023-05-21T11:08:00.579Z,25.00
2023-05-21T11:09:00.879Z,25.00
2023-05-21T11:10:01.163Z,25.00
2023-05-21T11:11:01.468Z,24.99
2023-05-21T11:12:01.733Z,24.99
2023-05-21T11:13:02.026Z,24.99
2023-05-21T11:14:02.309Z,24.99
2023-05-21T11:15:02.622Z,24.98
2023-05-21T11:16:02.916Z,24.98
2023-05-21T11:17:03.323Z,24.96
2023-05-21T11:18:03.504Z,24.96
2023-05-21T11:19:03.909Z,24.98
2023-05-21T11:20:04.033Z,24.96
2023-05-21T11:21:04.336Z,24.95
2023-05-21T11:22:04.644Z,24.93
2023-05-21T11:23:04.980Z,24.93
2023-05-21T11:24:05.139Z,24.91
2023-05-21T11:25:05.480Z,24.91
2023-05-21T11:26:05.655Z,24.91
2023-05-21T11:27:05.992Z,24.90
2023-05-21T11:28:06.199Z,24.88
2023-05-21T11:29:06.642Z,24.90
2023-05-21T11:30:06.743Z,24.88
2023-05-21T11:31:07.103Z,24.88
2023-05-21T11:32:07.358Z,24.88
2023-05-21T11:33:07.872Z,24.87
2023-05-21T11:34:07.919Z,24.87
2023-05-21T11:35:08.285Z,24.85
2023-05-21T11:36:08.588Z,24.87
2023-05-21T11:37:08.788Z,24.85
2023-05-21T11:38:09.073Z,24.87
2023-05-21T11:39:09.382Z,24.85
2023-05-21T11:40:09.657Z,24.85
2023-05-21T11:41:09.970Z,24.84
2023-05-21T11:42:10.277Z,24.84
2023-05-21T11:43:10.593Z,24.84
2023-05-21T11:44:10.895Z,24.83
2023-05-21T11:45:11.217Z,24.83
2023-05-21T11:46:11.579Z,24.81
2023-05-21T11:47:11.859Z,24.81
2023-05-21T11:48:12.155Z,24.81
2023-05-21T11:49:12.432Z,24.80
2023-05-21T11:50:12.785Z,24.80
2023-05-21T11:51:12.922Z,24.78
2023-05-21T11:52:13.216Z,24.78
2023-05-21T11:53:13.531Z,24.78
2023-05-21T11:54:13.828Z,24.77
2023-05-21T11:55:14.142Z,24.77
2023-05-21T11:56:14.452Z,24.77
2023-05-21T11:57:14.867Z,24.76
2023-05-21T11:58:14.982Z,24.76
2023-05-21T11:59:17.917Z,24.77
2023-05-21T12:00:15.560Z,24.76
2023-05-21T12:01:15.873Z,24.77
2023-05-21T12:02:16.162Z,24.76
2023-05-21T12:03:16.549Z,24.76
2023-05-21T12:04:16.694Z,24.77
2023-05-21T12:05:17.020Z,24.77
2023-05-21T12:06:17.323Z,24.76
2023-05-21T12:07:17.615Z,24.77
2023-05-21T12:08:17.896Z,24.76
2023-05-21T12:09:18.213Z,24.76
2023-05-21T12:10:18.506Z,24.76
2023-05-21T12:11:18.827Z,24.77
2023-05-21T12:12:19.137Z,24.77
2023-05-21T12:13:19.435Z,24.77
2023-05-21T12:14:19.789Z,24.76
2023-05-21T12:15:20.072Z,24.77
2023-05-21T12:16:20.375Z,24.76
2023-05-21T12:17:20.657Z,24.77
2023-05-21T12:18:20.949Z,24.76
2023-05-21T12:19:21.306Z,24.76
2023-05-21T12:20:21.552Z,24.76
2023-05-21T12:21:21.864Z,24.77
2023-05-21T12:22:22.121Z,24.77
2023-05-21T12:23:22.389Z,24.77
2023-05-21T12:24:22.688Z,24.77
2023-05-21T12:25:22.991Z,24.77
2023-05-21T12:26:23.264Z,24.77
2023-05-21T12:27:23.570Z,24.76
2023-05-21T12:28:23.891Z,24.78
2023-05-21T12:29:24.173Z,24.77
2023-05-21T12:30:24.467Z,24.78
2023-05-21T12:31:24.802Z,24.78
2023-05-21T12:32:25.089Z,24.78
2023-05-21T12:33:25.404Z,24.78
2023-05-21T12:34:25.670Z,24.80
2023-05-21T12:35:26.029Z,24.78
2023-05-21T12:36:26.208Z,24.80
2023-05-21T12:37:26.517Z,24.80
2023-05-21T12:38:26.808Z,24.81
2023-05-21T12:39:27.146Z,24.81
2023-05-21T12:40:27.415Z,24.81
2023-05-21T12:41:27.729Z,24.83
2023-05-21T12:42:28.009Z,24.83
2023-05-21T12:43:28.313Z,24.83
2023-05-21T12:44:28.617Z,24.84
2023-05-21T12:45:28.929Z,24.85
2023-05-21T12:46:29.263Z,24.84
2023-05-21T12:47:29.553Z,24.85
2023-05-21T12:48:29.796Z,24.85
2023-05-21T12:49:30.104Z,24.85
2023-05-21T12:50:30.402Z,24.85
2023-05-21T12:51:30.719Z,24.85
2023-05-21T12:52:31.054Z,24.87
2023-05-21T12:53:31.333Z,24.85
2023-05-21T12:54:31.634Z,24.85
2023-05-21T12:55:31.948Z,24.85
2023-05-21T12:56:32.260Z,24.87